Time;durP1;ratioP1;P1;durP2;ratioP2;P2;SDS_P1;SDS_P2;PMS_P1;PMS_P2;Temp;Humidity;BMP_temperature;BMP_pressure;BME280_temperature;BME280_humidity;BME280_pressure;Samples;Min_cycle;Max_cycle;Signal;HPM_P1;HPM_P2
2022/09/07 00:03:04;;;;;;;;;;;;;;;13.16;61.34;101251.16;12867326;23;20333;-71
2022/09/07 00:08:07;;;;;;;;;;;;;;;13.16;61.05;101239.84;12867234;23;19940;-72
2022/09/07 00:13:12;;;;;;;;;;;;;;;13.12;61.25;101228.56;12867289;23;19995;-70
2022/09/07 00:18:15;;;;;;;;;;;;;;;12.96;61.75;101224.28;12868248;23;19920;-68
2022/09/07 00:23:19;;;;;;;;;;;;;;;12.86;62.09;101227.81;12867557;23;19983;-68
2022/09/07 00:28:23;;;;;;;;;;;;;;;12.77;62.19;101227.88;12867315;23;19947;-69
2022/09/07 00:33:27;;;;;;;;;;;;;;;12.82;61.87;101213.09;12866763;23;20022;-69
2022/09/07 00:38:30;;;;;;;;;;;;;;;12.78;61.44;101213.97;12866656;23;19924;-67
2022/09/07 00:43:36;;;;;;;;;;;;;;;12.64;62.30;101215.78;12867223;23;19954;-68
2022/09/07 00:48:43;;;;;;;;;;;;;;;12.66;62.35;101217.53;12872272;23;20266;-69
2022/09/07 00:53:52;;;;;;;;;;;;;;;12.47;63.02;101213.28;12872281;23;20011;-69
2022/09/07 00:58:57;;;;;;;;;;;;;;;12.49;63.15;101215.88;12871835;23;20026;-68
2022/09/07 01:04:01;;;;;;;;;;;;;;;12.43;63.69;101216.75;12866258;23;19958;-68
2022/09/07 01:09:06;;;;;;;;;;;;;;;12.28;64.24;101210.72;12866486;23;19996;-69
2022/09/07 01:14:14;;;;;;;;;;;;;;;12.38;64.11;101215.03;12872214;23;19939;-68
2022/09/07 01:19:30;;;;;;;;;;;;;;;12.29;63.92;101213.31;12871236;23;20013;-70
2022/09/07 01:24:50;;;;;;;;;;;;;;;12.18;64.46;101215.09;12870620;23;19986;-66
2022/09/07 01:30:00;;;;;;;;;;;;;;;12.22;64.02;101206.41;12869202;23;19940;-67
2022/09/07 01:35:06;;;;;;;;;;;;;;;12.19;64.08;101211.63;12868889;23;19927;-71
2022/09/07 01:40:12;;;;;;;;;;;;;;;12.11;64.23;101207.31;12869814;23;19954;-71
2022/09/07 01:45:19;;;;;;;;;;;;;;;12.01;64.63;101205.63;12873417;23;19947;-74
2022/09/07 01:50:24;;;;;;;;;;;;;;;11.95;64.71;101211.69;12871310;23;19987;-71
2022/09/07 01:55:32;;;;;;;;;;;;;;;11.86;65.22;101216.03;12870102;23;20338;-69
2022/09/07 02:00:38;;;;;;;;;;;;;;;11.91;64.88;101207.34;12872503;23;19920;-70
2022/09/07 02:05:45;;;;;;;;;;;;;;;11.90;64.98;101217.75;12890581;23;20024;-70
2022/09/07 02:10:50;;;;;;;;;;;;;;;11.83;65.58;101205.63;12890530;23;19951;-70
2022/09/07 02:15:57;;;;;;;;;;;;;;;11.86;65.54;101210.81;12869547;23;19920;-74
2022/09/07 02:21:02;;;;;;;;;;;;;;;11.72;66.15;101208.25;12890202;23;19998;-73
2022/09/07 02:26:09;;;;;;;;;;;;;;;11.62;66.97;101204.78;12869810;23;19924;-71
2022/09/07 02:31:14;;;;;;;;;;;;;;;11.49;67.62;101197.81;12869168;23;19944;-70
2022/09/07 02:36:19;;;;;;;;;;;;;;;11.54;67.41;101200.44;12871321;23;19944;-72
2022/09/07 02:41:30;;;;;;;;;;;;;;;11.52;67.66;101192.66;12868883;23;20295;-72
2022/09/07 02:46:45;;;;;;;;;;;;;;;11.45;68.36;101192.66;12889804;23;19999;-72
2022/09/07 02:51:55;;;;;;;;;;;;;;;11.31;69.59;101187.44;12868916;23;19946;-72
2022/09/07 02:57:01;;;;;;;;;;;;;;;11.28;69.80;101190.06;12889630;23;19987;-72
2022/09/07 03:02:11;;;;;;;;;;;;;;;11.29;70.18;101183.09;12889982;23;19951;-73
2022/09/07 03:07:16;;;;;;;;;;;;;;;11.19;71.23;101189.16;12889490;23;19996;-73
2022/09/07 03:12:19;;;;;;;;;;;;;;;11.19;71.73;101179.66;12868550;23;20342;-71
2022/09/07 03:17:23;;;;;;;;;;;;;;;11.16;72.28;101179.66;12868441;23;19926;-74
2022/09/07 03:22:27;;;;;;;;;;;;;;;11.14;72.63;101180.50;12868141;23;20197;-71
2022/09/07 03:27:30;;;;;;;;;;;;;;;11.18;72.25;101177.91;12868095;23;20000;-71
2022/09/07 03:32:35;;;;;;;;;;;;;;;11.12;72.31;101177.03;12868445;23;19991;-73
2022/09/07 03:37:38;;;;;;;;;;;;;;;10.96;72.73;101175.31;12868003;23;19998;-71
2022/09/07 03:42:41;;;;;;;;;;;;;;;11.01;72.23;101182.22;12868184;23;20003;-72
2022/09/07 03:47:46;;;;;;;;;;;;;;;11.07;71.06;101178.78;12868404;23;20289;-73
2022/09/07 03:52:49;;;;;;;;;;;;;;;11.03;71.18;101183.09;12867698;23;19940;-71
2022/09/07 03:57:52;;;;;;;;;;;;;;;11.06;70.90;101188.28;12867413;23;19991;-72
2022/09/07 04:02:56;;;;;;;;;;;;;;;10.96;71.35;101185.69;12867320;23;20013;-74
2022/09/07 04:08:00;;;;;;;;;;;;;;;10.83;71.80;101178.72;12867358;23;20310;-71
2022/09/07 04:13:03;;;;;;;;;;;;;;;10.75;72.39;101181.31;12867415;23;19919;-70
2022/09/07 04:18:07;;;;;;;;;;;;;;;10.78;72.16;101191.72;12867188;23;20440;-74
2022/09/07 04:23:10;;;;;;;;;;;;;;;10.77;72.98;101191.72;12867339;23;20007;-74
2022/09/07 04:28:13;;;;;;;;;;;;;;;10.80;73.16;101186.53;12867432;23;20192;-70
2022/09/07 04:33:17;;;;;;;;;;;;;;;10.75;73.54;101191.69;12866817;23;20337;-69
2022/09/07 04:38:20;;;;;;;;;;;;;;;10.77;73.90;101184.78;12862226;23;20330;-72
2022/09/07 04:43:23;;;;;;;;;;;;;;;10.90;74.14;101191.75;12859664;23;20553;-73
2022/09/07 04:48:28;;;;;;;;;;;;;;;10.86;74.28;101184.81;12859481;23;20294;-72
2022/09/07 04:53:31;;;;;;;;;;;;;;;10.80;74.98;101189.13;12858956;23;20231;-69
2022/09/07 04:58:35;;;;;;;;;;;;;;;10.99;74.66;101190.88;12859645;23;20359;-72
2022/09/07 05:03:39;;;;;;;;;;;;;;;11.09;74.29;101187.44;12858695;23;20363;-74
2022/09/07 05:08:43;;;;;;;;;;;;;;;11.25;73.59;101192.63;12859419;23;20323;-70
2022/09/07 05:13:46;;;;;;;;;;;;;;;11.30;73.07;101190.91;12857228;23;19920;-71
2022/09/07 05:18:51;;;;;;;;;;;;;;;11.37;72.38;101197.84;12857400;23;19991;-72
2022/09/07 05:23:55;;;;;;;;;;;;;;;11.48;71.96;101203.03;12858189;23;20275;-70
2022/09/07 05:29:01;;;;;;;;;;;;;;;11.52;71.66;101194.38;12858639;23;19951;-70
2022/09/07 05:34:26;;;;;;;;;;;;;;;11.49;71.74;101200.44;12859516;23;19951;-74
2022/09/07 05:39:30;;;;;;;;;;;;;;;11.58;72.21;101197.84;12859863;23;19935;-71
2022/09/07 05:44:35;;;;;;;;;;;;;;;11.76;71.38;101193.50;12859337;23;19999;-72
2022/09/07 05:49:48;;;;;;;;;;;;;;;11.86;70.98;101192.63;12859733;23;20268;-74
2022/09/07 05:54:54;;;;;;;;;;;;;;;12.02;70.58;101189.13;12860072;23;19994;-74
2022/09/07 06:00:15;;;;;;;;;;;;;;;12.08;70.13;101189.13;12878366;23;19955;-72
2022/09/07 06:05:19;;;;;;;;;;;;;;;12.23;69.33;101189.06;12858168;23;20127;-72
2022/09/07 06:10:22;;;;;;;;;;;;;;;12.33;68.23;101185.53;12858103;23;19999;-70
2022/09/07 06:15:45;;;;;;;;;;;;;;;12.48;68.50;101177.66;12858455;23;19924;-71
2022/09/07 06:20:49;;;;;;;;;;;;;;;12.59;67.52;101175.88;12857972;23;20002;-71
2022/09/07 06:25:52;;;;;;;;;;;;;;;12.67;66.79;101180.19;12859306;23;19951;-72
2022/09/07 06:30:58;;;;;;;;;;;;;;;12.68;65.46;101171.47;12861466;23;19955;-73
2022/09/07 06:36:04;;;;;;;;;;;;;;;12.70;64.77;101155.88;12882474;23;20003;-70
2022/09/07 06:41:08;;;;;;;;;;;;;;;12.82;64.11;101154.03;12863893;23;19959;-71
2022/09/07 06:46:33;;;;;;;;;;;;;;;12.96;63.53;101158.28;12861369;23;20274;-71
2022/09/07 06:51:57;;;;;;;;;;;;;;;13.02;63.18;101151.31;12862808;23;20003;-75
2022/09/07 06:57:06;;;;;;;;;;;;;;;13.14;63.08;101151.22;12862957;23;20018;-72
2022/09/07 07:02:11;;;;;;;;;;;;;;;13.28;62.80;101149.38;12884248;23;20010;-71
2022/09/07 07:07:15;;;;;;;;;;;;;;;13.48;62.43;101143.97;12862452;23;20589;-74
2022/09/07 07:12:18;;;;;;;;;;;;;;;13.66;62.09;101138.59;12861493;23;20622;-72
2022/09/07 07:17:20;;;;;;;;;;;;;;;13.78;61.76;101149.78;12861359;23;19966;-70
2022/09/07 07:22:25;;;;;;;;;;;;;;;13.89;61.34;101149.66;12861638;23;20345;-70
2022/09/07 07:27:48;;;;;;;;;;;;;;;14.03;60.39;101158.19;12862531;23;19994;-74
2022/09/07 07:32:51;;;;;;;;;;;;;;;14.13;59.69;101170.28;12862134;23;19999;-72
2022/09/07 07:37:56;;;;;;;;;;;;;;;14.27;58.52;101170.97;12861253;23;19962;-72
2022/09/07 07:43:19;;;;;;;;;;;;;;;14.39;57.27;101172.59;12860637;23;20031;-74
2022/09/07 07:48:22;;;;;;;;;;;;;;;14.56;56.48;101166.28;12860033;23;20017;-73
2022/09/07 07:53:28;;;;;;;;;;;;;;;14.69;54.89;101161.72;12860816;23;20327;-71
2022/09/07 07:58:47;;;;;;;;;;;;;;;14.84;54.10;101153.69;12881163;23;20007;-71
2022/09/07 08:03:50;;;;;;;;;;;;;;;14.99;53.25;101156.06;12860271;23;19958;-72
2022/09/07 08:08:55;;;;;;;;;;;;;;;15.09;53.32;101144.56;12860142;23;19947;-71
2022/09/07 08:13:59;;;;;;;;;;;;;;;15.19;52.65;101135.69;12859756;23;19959;-73
2022/09/07 08:19:02;;;;;;;;;;;;;;;15.32;52.30;101129.38;12861674;23;20004;-72
2022/09/07 08:24:06;;;;;;;;;;;;;;;15.52;51.58;101129.91;12865330;23;19924;-71
2022/09/07 08:29:10;;;;;;;;;;;;;;;15.63;49.61;101122.75;12866215;23;19920;-74
2022/09/07 08:34:13;;;;;;;;;;;;;;;15.77;49.31;101112.84;12866319;23;20323;-74
2022/09/07 08:39:17;;;;;;;;;;;;;;;15.96;47.98;101114.22;12866754;23;19936;-74
2022/09/07 08:44:22;;;;;;;;;;;;;;;16.09;47.85;101109.59;12866538;23;19956;-73
2022/09/07 08:49:29;;;;;;;;;;;;;;;16.15;46.90;101104.25;12866969;23;20232;-71
2022/09/07 08:54:33;;;;;;;;;;;;;;;16.31;46.93;101103.00;12887101;23;20327;-73
2022/09/07 08:59:39;;;;;;;;;;;;;;;16.52;46.37;101092.09;12866067;23;19920;-74
2022/09/07 09:04:42;;;;;;;;;;;;;;;16.72;46.18;101096.88;12886698;23;19982;-74
2022/09/07 09:10:12;;;;;;;;;;;;;;;16.98;45.81;101090.09;12866595;23;19927;-72
2022/09/07 09:15:19;;;;;;;;;;;;;;;17.19;45.36;101086.97;12867911;23;19955;-76
2022/09/07 09:20:26;;;;;;;;;;;;;;;17.38;45.53;101063.72;12867807;23;19951;-71
2022/09/07 09:25:35;;;;;;;;;;;;;;;17.61;45.31;101058.75;12860632;23;19959;-73
2022/09/07 09:30:40;;;;;;;;;;;;;;;17.86;45.05;101051.06;12859177;23;19982;-71
2022/09/07 09:35:59;;;;;;;;;;;;;;;18.08;44.90;101053.00;12860714;23;19982;-72
2022/09/07 09:41:05;;;;;;;;;;;;;;;18.43;43.46;101039.66;12858455;23;19999;-72
2022/09/07 09:46:20;;;;;;;;;;;;;;;19.30;42.21;101042.94;12858471;23;19950;-73
2022/09/07 09:51:24;;;;;;;;;;;;;;;20.73;39.80;101031.31;12879218;23;20022;-68
2022/09/07 09:56:49;;;;;;;;;;;;;;;21.13;38.23;101027.00;12859260;23;19999;-67
2022/09/07 10:01:52;;;;;;;;;;;;;;;21.23;37.47;101023.03;12860390;23;19931;-68
2022/09/07 10:07:19;;;;;;;;;;;;;;;21.53;37.22;101011.16;12862935;23;20304;-65
2022/09/07 10:12:25;;;;;;;;;;;;;;;21.64;37.61;101013.31;12882699;23;19924;-67
2022/09/07 10:17:29;;;;;;;;;;;;;;;21.69;37.63;100998.09;12883401;23;19962;-67
2022/09/07 10:22:34;;;;;;;;;;;;;;;21.83;37.03;100995.69;12861988;23;20007;-71
2022/09/07 10:27:39;;;;;;;;;;;;;;;22.03;36.70;101008.88;12862509;23;19999;-64
2022/09/07 10:32:58;;;;;;;;;;;;;;;22.15;35.80;100989.78;12882770;23;19963;-65
2022/09/07 10:38:12;;;;;;;;;;;;;;;22.41;36.10;100981.47;12882469;23;20359;-66
2022/09/07 10:43:23;;;;;;;;;;;;;;;22.67;35.73;100973.13;12882819;23;19966;-69
2022/09/07 10:48:30;;;;;;;;;;;;;;;22.81;35.03;100975.06;12884183;23;19977;-67
2022/09/07 10:53:39;;;;;;;;;;;;;;;23.05;35.29;100959.72;12883040;23;20006;-71
2022/09/07 10:58:55;;;;;;;;;;;;;;;23.25;34.86;100964.81;12882603;23;19959;-66
2022/09/07 11:04:24;;;;;;;;;;;;;;;23.65;34.54;100960.00;12861386;23;19994;-66
2022/09/07 11:09:50;;;;;;;;;;;;;;;24.16;34.42;100966.06;12879056;23;19999;-68
2022/09/07 11:14:58;;;;;;;;;;;;;;;24.50;33.47;100966.72;12859461;23;19998;-66
2022/09/07 11:20:03;;;;;;;;;;;;;;;24.82;34.00;100963.06;12877993;23;20002;-69
2022/09/07 11:25:13;;;;;;;;;;;;;;;25.40;33.93;100952.47;12877995;23;19966;-68
2022/09/07 11:30:34;;;;;;;;;;;;;;;25.96;31.36;100938.25;12864734;23;19954;-71
2022/09/07 11:35:44;;;;;;;;;;;;;;;26.59;29.41;100936.72;12859921;23;20009;-74
2022/09/07 11:40:55;;;;;;;;;;;;;;;27.06;29.05;100921.03;12877271;23;19994;-74
2022/09/07 11:46:03;;;;;;;;;;;;;;;27.55;28.23;100920.28;12876850;23;20007;-72
2022/09/07 11:51:09;;;;;;;;;;;;;;;27.66;27.05;100913.25;12877524;23;20007;-71
2022/09/07 11:56:15;;;;;;;;;;;;;;;28.16;27.68;100907.75;12876571;23;19994;-74
2022/09/07 12:01:26;;;;;;;;;;;;;;;28.81;27.42;100901.97;12877683;23;20007;-73
2022/09/07 12:06:44;;;;;;;;;;;;;;;28.97;26.03;100889.97;12858915;23;20308;-74
2022/09/07 12:11:59;;;;;;;;;;;;;;;29.05;26.08;100887.53;12879247;23;19951;-72
2022/09/07 12:17:14;;;;;;;;;;;;;;;28.96;25.69;100893.59;12882150;23;19947;-73
2022/09/07 12:22:20;;;;;;;;;;;;;;;29.00;25.24;100891.53;12866029;23;19931;-71
2022/09/07 12:27:36;;;;;;;;;;;;;;;29.53;25.11;100894.38;12862110;23;20320;-71
2022/09/07 12:32:57;;;;;;;;;;;;;;;29.81;25.23;100889.50;12860913;23;20000;-71
2022/09/07 12:38:04;;;;;;;;;;;;;;;29.88;25.46;100877.31;12875304;23;19920;-71
2022/09/07 12:43:26;;;;;;;;;;;;;;;30.10;25.29;100871.91;12864952;23;19955;-74
2022/09/07 12:48:34;;;;;;;;;;;;;;;30.22;24.82;100860.16;12879610;23;20201;-72
2022/09/07 12:53:45;;;;;;;;;;;;;;;29.95;24.22;100863.31;12880541;23;19920;-69
2022/09/07 12:58:59;;;;;;;;;;;;;;;29.81;24.07;100855.56;12879022;23;19958;-70
2022/09/07 13:04:18;;;;;;;;;;;;;;;29.44;24.27;100851.47;12874701;23;19943;-70
2022/09/07 13:09:29;;;;;;;;;;;;;;;28.87;24.53;100853.38;12864578;23;19943;-70
2022/09/07 13:14:36;;;;;;;;;;;;;;;28.61;24.86;100847.38;12878523;23;20290;-69
2022/09/07 13:19:58;;;;;;;;;;;;;;;28.53;25.40;100841.75;12865107;23;19920;-72
2022/09/07 13:25:22;;;;;;;;;;;;;;;28.23;25.54;100842.22;12865230;23;19948;-72
2022/09/07 13:30:35;;;;;;;;;;;;;;;27.97;26.16;100834.50;12865440;23;20301;-71
2022/09/07 13:35:44;;;;;;;;;;;;;;;27.64;26.40;100835.13;12875462;23;19926;-71
2022/09/07 13:40:50;;;;;;;;;;;;;;;27.07;26.44;100828.59;12876114;23;19939;-70
2022/09/07 13:46:00;;;;;;;;;;;;;;;26.67;26.50;100821.69;12864654;23;19920;-70
2022/09/07 13:51:06;;;;;;;;;;;;;;;26.48;26.35;100829.19;12875981;23;19919;-68
2022/09/07 13:56:15;;;;;;;;;;;;;;;26.12;26.91;100821.91;12864662;23;20323;-70
2022/09/07 14:01:20;;;;;;;;;;;;;;;25.71;27.34;100824.59;12864976;23;19927;-72
2022/09/07 14:06:28;;;;;;;;;;;;;;;25.56;27.85;100825.56;12864146;23;19943;-74
2022/09/07 14:11:40;;;;;;;;;;;;;;;25.24;28.41;100820.56;12874749;23;19935;-73
2022/09/07 14:16:44;;;;;;;;;;;;;;;24.97;28.84;100816.03;12857661;23;19958;-74
2022/09/07 14:21:57;;;;;;;;;;;;;;;24.85;29.20;100806.16;12858159;23;20331;-71
2022/09/07 14:27:03;;;;;;;;;;;;;;;24.90;29.43;100795.28;12856893;23;19999;-71
2022/09/07 14:32:10;;;;;;;;;;;;;;;24.89;29.61;100812.13;12869404;23;19935;-70
2022/09/07 14:37:15;;;;;;;;;;;;;;;24.73;29.98;100800.78;12869926;23;20346;-74
2022/09/07 14:42:21;;;;;;;;;;;;;;;24.59;29.68;100796.25;12858355;23;20011;-70
2022/09/07 14:47:27;;;;;;;;;;;;;;;24.52;30.03;100784.28;12870913;23;20374;-69
2022/09/07 14:52:32;;;;;;;;;;;;;;;24.32;30.51;100787.31;12873870;23;19924;-69
2022/09/07 14:57:43;;;;;;;;;;;;;;;23.98;31.29;100782.25;12874005;23;19970;-72
2022/09/07 15:02:47;;;;;;;;;;;;;;;23.37;31.50;100789.31;12861189;23;19920;-71
2022/09/07 15:07:51;;;;;;;;;;;;;;;22.99;31.77;100785.28;12861882;23;19954;-70
2022/09/07 15:12:56;;;;;;;;;;;;;;;22.66;32.08;100785.25;12863192;23;19987;-71
2022/09/07 15:18:01;;;;;;;;;;;;;;;22.45;32.28;100770.50;12862991;23;19982;-70
2022/09/07 15:23:11;;;;;;;;;;;;;;;22.31;32.28;100783.59;12876123;23;20323;-70
2022/09/07 15:28:22;;;;;;;;;;;;;;;22.20;31.99;100777.97;12860451;23;20015;-73
2022/09/07 15:33:45;;;;;;;;;;;;;;;22.10;32.45;100774.97;12860934;23;20003;-72
2022/09/07 15:38:49;;;;;;;;;;;;;;;21.98;33.21;100785.28;12860450;23;19970;-70
2022/09/07 15:44:08;;;;;;;;;;;;;;;21.84;33.98;100783.34;12873130;23;19999;-71
2022/09/07 15:49:12;;;;;;;;;;;;;;;21.66;34.05;100785.06;12859868;23;20371;-69
2022/09/07 15:54:16;;;;;;;;;;;;;;;21.51;35.05;100790.22;12859639;23;19948;-69
2022/09/07 15:59:20;;;;;;;;;;;;;;;21.38;35.50;100789.09;12859958;23;19990;-69
2022/09/07 16:04:23;;;;;;;;;;;;;;;21.17;36.46;100793.63;12859570;23;20569;-69
2022/09/07 16:09:26;;;;;;;;;;;;;;;21.03;36.70;100789.88;12860284;23;19995;-69
2022/09/07 16:14:30;;;;;;;;;;;;;;;20.95;35.88;100784.06;12859487;23;19955;-68
2022/09/07 16:19:37;;;;;;;;;;;;;;;20.81;36.50;100779.44;12875320;23;19996;-68
2022/09/07 16:24:43;;;;;;;;;;;;;;;20.65;36.68;100774.00;12875079;23;20319;-65
2022/09/07 16:29:47;;;;;;;;;;;;;;;20.55;36.82;100769.19;12859357;23;20015;-67
2022/09/07 16:34:50;;;;;;;;;;;;;;;20.42;37.09;100775.91;12859885;23;20279;-67
2022/09/07 16:39:53;;;;;;;;;;;;;;;20.25;37.40;100767.88;12859913;23;19995;-67
2022/09/07 16:44:58;;;;;;;;;;;;;;;20.14;37.52;100770.94;12859677;23;20011;-66
2022/09/07 16:50:21;;;;;;;;;;;;;;;19.95;37.71;100772.63;12861964;23;20004;-68
2022/09/07 16:55:25;;;;;;;;;;;;;;;19.86;38.17;100770.41;12860636;23;19948;-70
2022/09/07 17:00:29;;;;;;;;;;;;;;;19.71;38.71;100772.81;12857657;23;19952;-67
2022/09/07 17:05:38;;;;;;;;;;;;;;;19.58;39.08;100776.84;12875483;23;20327;-66
2022/09/07 17:10:41;;;;;;;;;;;;;;;19.50;39.08;100770.09;12858270;23;20000;-69
2022/09/07 17:15:45;;;;;;;;;;;;;;;19.44;39.50;100777.38;12876827;23;20267;-72
2022/09/07 17:20:53;;;;;;;;;;;;;;;19.34;38.97;100784.81;12877605;23;19944;-71
2022/09/07 17:26:02;;;;;;;;;;;;;;;19.25;38.68;100781.63;12875248;23;20003;-69
2022/09/07 17:31:08;;;;;;;;;;;;;;;19.12;38.43;100775.97;12857645;23;19927;-69
2022/09/07 17:36:12;;;;;;;;;;;;;;;19.06;38.24;100788.50;12877011;23;20003;-70
2022/09/07 17:41:17;;;;;;;;;;;;;;;18.97;38.66;100792.34;12858231;23;19991;-72
2022/09/07 17:46:22;;;;;;;;;;;;;;;18.86;39.17;100810.28;12858153;23;20246;-72
2022/09/07 17:51:26;;;;;;;;;;;;;;;18.76;39.21;100806.28;12877569;23;19958;-72
2022/09/07 17:56:30;;;;;;;;;;;;;;;18.72;39.39;100809.09;12856629;23;19954;-73
2022/09/07 18:01:34;;;;;;;;;;;;;;;18.59;40.22;100810.41;12857244;23;20344;-70
2022/09/07 18:06:37;;;;;;;;;;;;;;;18.54;40.35;100810.59;12877132;23;20006;-72
2022/09/07 18:11:42;;;;;;;;;;;;;;;18.46;39.94;100809.16;12858193;23;20026;-71
2022/09/07 18:16:49;;;;;;;;;;;;;;;18.38;40.57;100814.63;12879476;23;20284;-71
2022/09/07 18:21:52;;;;;;;;;;;;;;;18.28;40.85;100800.97;12858448;23;19954;-69
2022/09/07 18:26:55;;;;;;;;;;;;;;;18.21;41.00;100802.09;12862640;23;19952;-72
2022/09/07 18:32:00;;;;;;;;;;;;;;;18.16;40.98;100809.25;12885026;23;20006;-72
2022/09/07 18:37:04;;;;;;;;;;;;;;;18.17;40.56;100810.97;12883650;23;19977;-69
2022/09/07 18:42:07;;;;;;;;;;;;;;;18.10;41.21;100801.56;12862208;23;19920;-70
2022/09/07 18:47:15;;;;;;;;;;;;;;;18.04;41.40;100804.44;12863288;23;19920;-71
2022/09/07 18:52:25;;;;;;;;;;;;;;;17.97;41.61;100805.53;12861478;23;19923;-71
2022/09/07 18:57:48;;;;;;;;;;;;;;;17.97;41.84;100810.78;12861285;23;19920;-71
2022/09/07 19:02:53;;;;;;;;;;;;;;;17.93;41.65;100806.53;12861137;23;19955;-72
2022/09/07 19:07:56;;;;;;;;;;;;;;;17.92;41.98;100810.09;12861062;23;19935;-73
2022/09/07 19:12:59;;;;;;;;;;;;;;;17.82;41.90;100806.03;12862219;23;19934;-69
2022/09/07 19:18:04;;;;;;;;;;;;;;;17.73;42.48;100810.72;12861790;23;19947;-71
2022/09/07 19:23:09;;;;;;;;;;;;;;;17.77;42.46;100807.09;12862587;23;19948;-70
2022/09/07 19:28:13;;;;;;;;;;;;;;;17.75;42.58;100798.41;12860642;23;20296;-72
2022/09/07 19:33:17;;;;;;;;;;;;;;;17.71;42.59;100794.16;12860757;23;19999;-73
2022/09/07 19:38:20;;;;;;;;;;;;;;;17.64;42.73;100803.13;12862238;23;19927;-71
2022/09/07 19:43:23;;;;;;;;;;;;;;;17.55;42.99;100803.44;12861094;23;19947;-68
2022/09/07 19:48:30;;;;;;;;;;;;;;;17.59;43.13;100808.53;12859919;23;20030;-68
2022/09/07 19:53:34;;;;;;;;;;;;;;;17.51;43.72;100814.94;12859934;23;20231;-73
2022/09/07 19:58:38;;;;;;;;;;;;;;;17.47;43.65;100814.16;12860322;23;19990;-67
2022/09/07 20:03:49;;;;;;;;;;;;;;;17.44;43.59;100816.00;12865363;23;19919;-69
2022/09/07 20:08:52;;;;;;;;;;;;;;;17.37;44.21;100819.72;12865010;23;20054;-71
2022/09/07 20:13:55;;;;;;;;;;;;;;;17.28;44.23;100816.47;12860372;23;19991;-69
2022/09/07 20:19:00;;;;;;;;;;;;;;;17.25;45.06;100821.81;12860529;23;19948;-69
2022/09/07 20:24:03;;;;;;;;;;;;;;;17.17;45.34;100823.78;12859825;23;20293;-68
2022/09/07 20:29:06;;;;;;;;;;;;;;;17.13;45.63;100816.94;12859186;23;20323;-68
2022/09/07 20:34:31;;;;;;;;;;;;;;;17.04;45.60;100817.19;12859835;23;20042;-69
2022/09/07 20:39:33;;;;;;;;;;;;;;;17.05;45.85;100818.91;12859308;23;19998;-70
2022/09/07 20:44:41;;;;;;;;;;;;;;;17.01;46.60;100817.28;12863623;23;19931;-69
2022/09/07 20:49:45;;;;;;;;;;;;;;;16.86;46.57;100811.63;12859507;23;20323;-67
2022/09/07 20:54:48;;;;;;;;;;;;;;;16.85;46.92;100812.50;12858867;23;19947;-69
2022/09/07 20:59:52;;;;;;;;;;;;;;;16.82;46.86;100815.22;12858978;23;20235;-70
2022/09/07 21:04:56;;;;;;;;;;;;;;;16.73;47.18;100816.34;12859892;23;19995;-72
2022/09/07 21:09:59;;;;;;;;;;;;;;;16.54;47.58;100812.50;12858871;23;20306;-66
2022/09/07 21:15:08;;;;;;;;;;;;;;;16.33;47.92;100820.91;12865519;23;19919;-67
2022/09/07 21:20:13;;;;;;;;;;;;;;;16.27;48.25;100828.94;12864522;23;19943;-64
2022/09/07 21:25:16;;;;;;;;;;;;;;;16.17;48.59;100825.66;12865870;23;20020;-70
2022/09/07 21:30:19;;;;;;;;;;;;;;;16.26;48.10;100835.06;12865071;23;20327;-69
2022/09/07 21:35:23;;;;;;;;;;;;;;;16.25;48.52;100833.34;12865866;23;19931;-68
2022/09/07 21:40:26;;;;;;;;;;;;;;;16.18;48.53;100832.66;12865608;23;19927;-69
2022/09/07 21:45:31;;;;;;;;;;;;;;;16.10;49.24;100839.81;12866017;23;19995;-71
2022/09/07 21:50:35;;;;;;;;;;;;;;;16.00;49.93;100832.22;12866379;23;19939;-69
2022/09/07 21:55:38;;;;;;;;;;;;;;;15.96;49.77;100844.53;12866013;23;20264;-68
2022/09/07 22:00:41;;;;;;;;;;;;;;;15.88;50.16;100845.59;12869348;23;19943;-68
2022/09/07 22:05:48;;;;;;;;;;;;;;;15.81;50.56;100841.41;12869709;23;20025;-69
2022/09/07 22:10:51;;;;;;;;;;;;;;;15.84;50.41;100825.66;12878797;23;19950;-68
2022/09/07 22:15:54;;;;;;;;;;;;;;;15.78;51.01;100824.03;12869940;23;19992;-68
2022/09/07 22:21:01;;;;;;;;;;;;;;;15.76;50.45;100820.59;12869584;23;19920;-67
2022/09/07 22:26:05;;;;;;;;;;;;;;;15.62;50.80;100814.81;12869208;23;19920;-68
2022/09/07 22:31:09;;;;;;;;;;;;;;;15.55;51.06;100812.41;12869538;23;19951;-68
2022/09/07 22:36:15;;;;;;;;;;;;;;;15.58;50.16;100813.16;12869243;23;19943;-72
2022/09/07 22:41:19;;;;;;;;;;;;;;;15.59;49.61;100814.03;12878909;23;19920;-69
2022/09/07 22:46:22;;;;;;;;;;;;;;;15.53;49.87;100812.41;12868724;23;20021;-71
2022/09/07 22:51:27;;;;;;;;;;;;;;;15.45;50.39;100806.50;12865829;23;20007;-71
2022/09/07 22:56:32;;;;;;;;;;;;;;;15.35;50.67;100823.28;12872380;23;19966;-69
2022/09/07 23:01:35;;;;;;;;;;;;;;;15.29;50.75;100815.53;12861958;23;19948;-65
2022/09/07 23:06:41;;;;;;;;;;;;;;;15.00;52.14;100823.16;12861500;23;19991;-61
2022/09/07 23:11:45;;;;;;;;;;;;;;;14.87;52.82;100821.69;12872602;23;19920;-62
2022/09/07 23:16:48;;;;;;;;;;;;;;;14.77;53.35;100825.38;12861807;23;19924;-62
2022/09/07 23:21:52;;;;;;;;;;;;;;;14.71;54.16;100821.13;12861341;23;20002;-64
2022/09/07 23:26:55;;;;;;;;;;;;;;;14.58;55.04;100824.00;12862876;23;20002;-66
2022/09/07 23:31:58;;;;;;;;;;;;;;;14.41;55.94;100820.84;12862780;23;20559;-63
2022/09/07 23:37:02;;;;;;;;;;;;;;;14.59;55.55;100810.03;12861816;23;19995;-65
2022/09/07 23:42:05;;;;;;;;;;;;;;;14.69;55.45;100807.22;12861730;23;19939;-68
2022/09/07 23:47:08;;;;;;;;;;;;;;;14.77;55.24;100807.09;12860941;23;20211;-67
2022/09/07 23:52:13;;;;;;;;;;;;;;;14.76;54.99;100801.00;12860375;23;19934;-65
2022/09/07 23:57:16;;;;;;;;;;;;;;;14.48;55.38;100805.03;12860319;23;19958;-63
